メインページ
METAR-TAF:

METAR-TAF

空港 :

バマコ・セヌー国際空港

バマコ, マリ共和国

緯度: 12-32N, 経度: 007-57W, 海抜: 380m

現時点の気象観測

当レポートは28分前の09:00(UTC)に作成
変向風 1kt
気温 25°C
湿度 83%
気圧 1016 hPa
視程10km以上
高度2000ftの千切れ雲あり

METAR: GABS 190900Z VRB01KT 9999 BKN020 25/22 Q1016 NOSIG

時間: 09:28 (09:28 UTC)

予報

当レポートは4時間28分前の05:00(UTC)に作成
予報は19日の 06時(UTC)から 20日の 12時(UTC)まで有効
南西の風 8kt
視程10km以上
高度2000ftの雲は散在している
確率 30% :
19日の 06時(UTC)から 19日の 11時(UTC)まで一時的に
視程: 4500m
高度2000ftの雲は散在している
高度2600ftの雲はほとんどない, 積乱雲.
激しい雷雨, にわか雨
19日の 15時(UTC)から 19日の 22時(UTC)まで一時的に
の風 15kt、最大35ktの突風を伴う
視程: 3000m
高度2000ftの千切れ雲あり
高度2600ftの雲は散在している, 積乱雲.
スコール, 激しい雷雨, 雨

TAF: GABS 190500Z 1906/2012 22008KT 9999 SCT020 PROB30 TEMPO 1906/1911 4500 TS SHRA SCT020 FEW026CB TEMPO 1915/1922 09015G35KT 3000 SQ TSRA BKN020 SCT026CB

4,000以上の空港の気象観測と天気予報(METAR報とTAF報)

利用可能な観測所は地図上に黄色い丸と赤い丸で示す。

丸の上にカーソルを重ねると観測所名を参照できる。

次にクリックすると気象観測と天気予報を参照できる。

マップの切り替え:黒色「×」印の緑ボタンをクリックして拡大、「-」印の緑ボタンをクリックして縮小、緑色の三角印をクリックして隣りの地図に切り替え


METAR-TAF: